Weather reports worldwide

Advertisment
Coventry/Coundon, United Kingdom (99070): temperature & dewpoint: 06.11.2019 16:00:00 - 12.11.2019 16:00:00 (GMT)Coventry/Coundon, United Kingdom (99070): temperature -20cm & temperature -100cm: 06.11.2019 16:00:00 - 12.11.2019 16:00:00 (GMT)Coventry/Coundon, United Kingdom (99070): wind speed & gusts: 06.11.2019 16:00:00 - 12.11.2019 16:00:00 (GMT)Coventry/Coundon, United Kingdom (99070): wind direction: 06.11.2019 16:00:00 - 12.11.2019 16:00:00 (GMT)Coventry/Coundon, United Kingdom (99070): precipitation: 06.11.2019 16:00:00 - 12.11.2019 16:00:00 (GMT)
Date & Time tt [°C] td [°C] tt -20cm [°C] tt -100cm [°C] ff [km/h] ff [kn] fx [km/h] fx [kn] dd rr [mm]
12.11.2019 16:00:00 - - - - - - - - - -
12.11.2019 15:00:00 7,5 4,8 - - 16 9 - - WNW 0,0
12.11.2019 14:00:00 6,6 4,9 - - 13 7 - - W 0,0
12.11.2019 13:00:00 6,2 3,7 - - 16 9 - - WSW 0,0
12.11.2019 12:00:00 6,3 3,3 - - 18 10 46 25 WSW 0,0
12.11.2019 11:00:00 5,8 2,9 - - 22 12 - - WSW 0,2
12.11.2019 10:00:00 4,9 2,7 - - 22 12 - - WSW 0,2
12.11.2019 09:00:00 4,5 1,6 8,5 10,7 16 9 - - SW 0,0
12.11.2019 08:00:00 3,6 1,5 - - 18 10 - - WSW 0,0
12.11.2019 07:00:00 2,9 1,3 - - 15 8 - - WSW 0,0
12.11.2019 06:00:00 2,8 1,3 - - 15 8 - - WSW 0,0
12.11.2019 05:00:00 3,2 1,2 - - 15 8 - - WSW 0,0
12.11.2019 04:00:00 3,2 1,2 - - 16 9 - - WSW 0,0
12.11.2019 03:00:00 3,5 1,2 - - 16 9 - - W 0,0
12.11.2019 02:00:00 3,8 1,6 - - 18 10 - - WSW 0,0
12.11.2019 01:00:00 3,7 1,8 - - 16 9 - - WSW 0,0
12.11.2019 00:00:00 3,5 1,9 - - 11 6 - - SW 0,0
11.11.2019 23:00:00 3,5 1,8 - - 13 7 - - SW 0,0
11.11.2019 22:00:00 3,9 1,8 - - 15 8 - - WSW 0,0
11.11.2019 21:00:00 4,5 1,7 - - 13 7 - - WSW 0,0
11.11.2019 20:00:00 4,5 1,9 - - 13 7 - - WSW 0,0
11.11.2019 19:00:00 5,0 2,1 - - 13 7 - - WSW 0,0
11.11.2019 18:00:00 5,9 2,5 - - 13 7 - - WSW 0,0
11.11.2019 17:00:00 6,6 2,5 - - 18 10 - - W 0,0
11.11.2019 16:00:00 7,1 2,8 - - 21 11 - - W 0,0
11.11.2019 15:00:00 7,7 2,9 - - 16 9 - - W 0,0
11.11.2019 14:00:00 7,9 3,0 - - 16 9 - - W 0,0
11.11.2019 13:00:00 8,5 3,1 - - 16 9 - - W 0,0
11.11.2019 12:00:00 8,0 2,6 - - 18 10 - - W 0,0
11.11.2019 11:00:00 7,4 3,7 - - 16 9 - - W 0,0
11.11.2019 10:00:00 5,9 3,9 - - 13 7 - - W 0,0
11.11.2019 09:00:00 5,1 3,8 8,7 11,0 11 6 - - WSW 0,0
11.11.2019 08:00:00 4,6 3,6 - - 11 6 - - W 0,0
11.11.2019 07:00:00 5,0 3,7 - - 11 6 - - W 0,0
11.11.2019 06:00:00 5,7 4,1 - - 11 6 - - W 0,0
11.11.2019 05:00:00 6,3 5,3 - - 16 9 - - W 1,0
11.11.2019 04:00:00 6,1 5,9 - - 11 6 - - S 1,6
11.11.2019 03:00:00 5,8 5,6 - - 8 4 - - S 1,8
11.11.2019 02:00:00 5,7 5,3 - - 8 4 - - S 1,0
11.11.2019 01:00:00 5,2 4,6 - - 9 5 - - S 0,2
11.11.2019 00:00:00 4,6 4,1 - - 8 4 - - SSE 0,4
10.11.2019 23:00:00 4,6 3,9 - - 8 4 - - S 0,0
10.11.2019 22:00:00 4,3 3,9 - - 4 2 - - SSW 0,0
10.11.2019 21:00:00 4,1 3,7 - - 2 1 - - SW 0,0
10.11.2019 20:00:00 4,4 3,9 - - 4 2 - - S 0,0
10.11.2019 19:00:00 4,3 3,4 - - 4 2 - - SE 0,0
10.11.2019 18:00:00 4,4 3,9 - - 5 3 - - S 0,0
10.11.2019 17:00:00 4,1 2,9 - - 4 2 - - SE 0,0
10.11.2019 16:00:00 6,3 3,2 - - 5 3 - - ESE 0,0
10.11.2019 15:00:00 7,9 3,8 - - 5 3 - - E 0,0
10.11.2019 14:00:00 7,8 4,3 - - 8 4 - - NE 0,0
10.11.2019 13:00:00 7,4 3,4 - - 9 5 - - NE 0,0
10.11.2019 12:00:00 6,6 3,4 - - 11 6 - - ENE 0,0
10.11.2019 11:00:00 6,0 2,1 - - 11 6 - - NNE 0,0
10.11.2019 10:00:00 5,5 1,9 - - 13 7 - - NNE 0,0
10.11.2019 09:00:00 4,3 1,2 8,9 11,2 13 7 - - N 0,0
10.11.2019 08:00:00 3,5 0,8 - - 15 8 - - N 0,0
10.11.2019 07:00:00 3,2 0,7 - - 13 7 - - N 0,0
10.11.2019 06:00:00 4,0 1,3 - - 15 8 - - N 0,0
10.11.2019 05:00:00 4,3 1,9 - - 15 8 - - NNE 0,0
10.11.2019 04:00:00 4,8 3,1 - - 18 10 - - NNE 0,0
10.11.2019 03:00:00 4,9 3,7 - - 21 11 - - NNE 0,2
10.11.2019 02:00:00 4,6 3,6 - - 22 12 - - NE 0,2
10.11.2019 01:00:00 4,4 3,4 - - 18 10 - - NE 0,4
10.11.2019 00:00:00 4,2 3,7 - - 16 9 - - NE 0,8
09.11.2019 23:00:00 3,8 3,3 - - 18 10 - - NE 1,4
09.11.2019 22:00:00 3,9 3,5 - - 18 10 - - NE 2,4
09.11.2019 21:00:00 4,1 3,7 - - 16 9 - - NE 1,2
09.11.2019 20:00:00 4,2 3,9 - - 15 8 - - ENE 2,0
09.11.2019 19:00:00 4,2 3,9 - - 11 6 - - ENE 2,0
09.11.2019 18:00:00 4,0 3,7 - - 13 7 - - NE 1,8
09.11.2019 17:00:00 3,9 3,4 - - 11 6 - - E 1,8
09.11.2019 16:00:00 3,8 3,2 - - 11 6 - - E 1,6
09.11.2019 15:00:00 4,1 3,4 - - 15 8 - - E 0,8
09.11.2019 14:00:00 4,0 3,0 - - 13 7 - - ESE 0,4
09.11.2019 13:00:00 3,9 2,7 - - 11 6 - - ESE 0,4
09.11.2019 12:00:00 3,9 2,8 - - 9 5 - - E 0,0
09.11.2019 11:00:00 3,6 2,9 - - 9 5 - - ESE 0,0
09.11.2019 10:00:00 1,9 1,9 - - 9 5 - - ESE 0,0
09.11.2019 09:00:00 0,4 0,4 9,5 11,4 8 4 - - SE 0,0
09.11.2019 08:00:00 -0,7 -0,7 - - 4 2 - - WSW 0,0
09.11.2019 07:00:00 -1,0 -1,0 - - 4 2 - - WSW 0,0
09.11.2019 06:00:00 -1,8 -2,2 - - 0 0 - - N 0,0
09.11.2019 05:00:00 -0,4 -0,4 - - 4 2 - - SW 0,0
09.11.2019 04:00:00 0,0 -0,1 - - 4 2 - - S 0,0
09.11.2019 03:00:00 0,1 -0,3 - - 2 1 - - NW 0,0
09.11.2019 02:00:00 0,7 0,1 - - 4 2 - - NNW 0,2
09.11.2019 01:00:00 1,9 1,5 - - 8 4 - - NW 0,0
09.11.2019 00:00:00 2,2 1,6 - - 8 4 - - W 0,0
08.11.2019 23:00:00 2,9 2,2 - - 9 5 - - NW 0,0
08.11.2019 22:00:00 2,9 2,3 - - 8 4 - - NW 0,0
08.11.2019 21:00:00 3,7 2,9 - - 9 5 - - NW 0,0
08.11.2019 20:00:00 4,2 3,0 - - 9 5 - - NW 0,0
08.11.2019 19:00:00 4,6 3,3 - - 9 5 - - NW 0,0
08.11.2019 18:00:00 4,9 4,0 - - 9 5 - - NW 0,0
08.11.2019 17:00:00 5,5 4,1 - - 15 8 - - NNW 0,2
08.11.2019 16:00:00 5,8 4,3 - - 13 7 - - NNW 0,4
08.11.2019 15:00:00 7,4 3,2 - - 9 5 - - NNW 0,0
08.11.2019 14:00:00 7,6 3,4 - - 11 6 - - NNW 0,0
08.11.2019 13:00:00 7,7 3,3 - - 16 9 - - NNW 0,0
08.11.2019 12:00:00 7,8 4,1 - - 18 10 - - NNW 0,0
08.11.2019 11:00:00 7,1 3,8 - - 16 9 - - NNW 0,0
08.11.2019 10:00:00 6,7 4,0 - - 16 9 - - NNW 0,0
08.11.2019 09:00:00 5,7 3,9 9,9 11,7 15 8 - - N 0,0
08.11.2019 08:00:00 5,8 4,1 - - 15 8 - - N 0,0
08.11.2019 07:00:00 5,8 4,3 - - 15 8 - - N 0,0
08.11.2019 06:00:00 6,5 5,4 - - 16 9 - - N 0,6
08.11.2019 05:00:00 6,7 5,6 - - 18 10 - - N 1,6
08.11.2019 04:00:00 6,1 5,8 - - 11 6 - - NNW 0,8
08.11.2019 03:00:00 5,7 5,5 - - 8 4 - - NNW 0,0
08.11.2019 02:00:00 4,6 4,5 - - 4 2 - - W 0,0
08.11.2019 01:00:00 4,1 3,9 - - 2 1 - - SW 0,0
08.11.2019 00:00:00 4,0 3,5 - - 4 2 - - WSW 0,0
07.11.2019 23:00:00 4,2 3,6 - - 4 2 - - WSW 0,0
07.11.2019 22:00:00 4,7 3,8 - - 2 1 - - W 0,0
07.11.2019 21:00:00 5,0 4,0 - - 4 2 - - SW -
07.11.2019 20:00:00 5,7 3,9 - - 2 1 - - SSW 0,0
07.11.2019 19:00:00 6,3 4,3 - - 5 3 - - W 0,0
07.11.2019 18:00:00 6,5 4,7 - - 4 2 - - SW 0,0
07.11.2019 17:00:00 6,9 4,8 - - 4 2 - - WSW 0,0
07.11.2019 16:00:00 7,6 4,5 - - 9 5 - - WNW 0,0
07.11.2019 15:00:00 8,3 4,9 - - 9 5 - - W 0,0
07.11.2019 14:00:00 8,4 5,5 - - 9 5 - - WSW 0,0
07.11.2019 13:00:00 9,0 6,6 - - 9 5 - - WSW 0,0
07.11.2019 12:00:00 7,8 5,8 - - 13 7 - - WSW 0,0
07.11.2019 11:00:00 7,1 5,6 - - 13 7 - - W 0,0
07.11.2019 10:00:00 6,5 5,9 - - 11 6 - - WSW 0,0
07.11.2019 09:00:00 5,7 5,5 9,9 11,7 8 4 - - WSW 0,0
07.11.2019 08:00:00 5,5 5,4 - - 5 3 - - W 0,0
07.11.2019 07:00:00 5,2 5,1 - - 5 3 - - NW 0,0
07.11.2019 06:00:00 5,3 5,1 - - 2 1 - - WNW 0,2
07.11.2019 05:00:00 5,5 5,3 - - 5 3 - - E 1,8
07.11.2019 04:00:00 5,6 5,4 - - 4 2 - - ESE 5,2
07.11.2019 03:00:00 5,5 5,4 - - 9 5 - - E 4,0
07.11.2019 02:00:00 5,5 5,3 - - 11 6 - - ESE 1,8
07.11.2019 01:00:00 5,7 5,1 - - 11 6 - - ESE 0,2
07.11.2019 00:00:00 6,0 5,1 - - 9 5 - - SE 0,0
06.11.2019 23:00:00 6,3 5,4 - - 9 5 - - SE 0,0
06.11.2019 22:00:00 6,5 5,7 - - 11 6 - - SE 0,0
06.11.2019 21:00:00 6,5 5,6 - - 13 7 - - SE 0,0
06.11.2019 20:00:00 6,5 6,0 - - 11 6 - - SE 0,4
06.11.2019 19:00:00 6,6 6,3 - - 9 5 - - SSE 0,4
06.11.2019 18:00:00 6,6 6,1 - - 5 3 - - S 0,2
06.11.2019 17:00:00 6,5 5,9 - - 9 5 - - SSE 0,6
06.11.2019 16:00:00 6,6 5,7 - - 8 4 - - SSE 0,2

tt = temperature
td = dewpoint
tt -20cm = temperature -20cm
tt -100cm = temperature -100cm
ff = wind speed
fx = gusts
dd = wind direction
rr = precipitation

Next stations